Announcement

Collapse
No announcement yet.

Profile METAR in TELNET

Collapse
X
  • Filter
  • Time
  • Show
Clear All
new posts

  • Profile METAR in TELNET

    Hellow,
    I created a fictitious sector (with an airport does not exist in reality).
    This airport is in Spain.

    When I created a metar profile in a telnet session with this commands:
    #wp create XXXX
    #wp set XXXX visibility 9999
    #wp set ........
    #wp set ........
    #wp activate XXXX


    When I write this
    #METAR XXXX
    console write this:
    #XXXX 120053Z 00000KT 15SM 00/01 A2950
    ¿¿¿U.S.A SYSTEM???

    I need this:
    #XXXX 120053Z 00000KT 9999 00/01 Q1030

    SM-> Visibility in Km.
    A2950-> Pressure in QNH.

    I need Europe system.

    ¿Any help?

    thx
    Alejandro Guerrero
Working...
X